Waitakeres Weather Go to January February March April May June
August Summaries Go to July August September October November December
Details 2007 2008 2009 2010 2011 2012 2013 2014 2015 2016 2017
Highest Temperature 17.4C 15.9C 18.8C 17.4C 17.9C 17.8C 18.4C 20.6C 17.4C 17.7C 18.5C
Lowest Temperature 5.9C 2.4C 5.9C 3.6C 1.3C 5.9C 6.2C 2.3C 1.5C 2.7C 3.8C
Average Temperature 11.9C 10.7C 12.3C 11.4C 9.7C 11.0C 11.5C 10.4C 10.2C 10.1C 11.4C
Highest Pressure 1030.0 hPa 1037.0 hPa 1032.0 hPa 1031.3 hPa 1036.0 hPa 1028.8 hPa 1026.3 hPa 1031.9 hPa 1033.7 hPa 1029.6 hPa 1030.7 hPa
Lowest Pressure 999.0 hPa 994.0 hPa 1002.0 hPa 999.3 hPa 997.5 hPa 997.3 hPa 994.6 hPa 1000.0 hPa 998.4 hPa 997.6 hPa 985.3 hPa
Total Rain - 210.9 mm 94.3 mm 248.2 mm 65.6 mm 166.4 mm 162.8 mm 133.0 mm 208.4 mm 121.8 mm 179.4 mm
Most Rain in 24 hrs - 42.7 mm 15.7 mm 35.4 mm 14.0 mm 26.2 mm 23.2 mm 26.0 mm 24.8 mm 28.4 mm 33.2 mm
Heaviest Rain       162.2 mm/hr 60.4 mm/hr 105.6 mm/hr 140.4 mm/hr 153.6 mm/hr 117.6 mm/hr 235.2 mm/hr 120.0 mm/hr
Number of Rain Days - 26 days 19 days 27 days 16 days 24 days 26 days 23 days 24 days 22 days 25 days
Highest Gust       32.2 km/hr 30.6 km/hr 29.0 km/hr 29.0 km/hr 32.2 km/hr 29.0 km/hr 33.8 km/hr 32.2 km/hr
Highest Average Wind       10.1 km/hr 9.3 km/hr 8.0 km/hr 8.0 km/hr 9.7 km/hr 8.0 km/hr 9.7 km/hr 9.7 km/hr
Highest Windrun       117.4 km 89.5 km 92.5 km 135.5 km 123.2 km 68.1 km 89.9 km 138.6 km
Back to Current Weather Go To Rainfall Data
Tabled Data - scroll down 2017 Temperature Pressure Rain Wind
for earlier years Maximum Minimum Average Maximum Minimum Day Total Maximum Rain Rate High Gust Highest Av Run
C C C hPa hPa mm mm/hr time km/h km/h km
01/08/2017 15.9C 6.0C 9.7C 1028.3 hPa 1021.3 hPa 0.0 mm 0.0 mm/hr 00:00 hrs 17.7 km/hr 3.2 km/hr 6.7 km
02/08/2017 14.1C 8.9C 11.3C 1021.4 hPa 1012.2 hPa 9.2 mm 10.6 mm/hr 18:23 hrs 19.3 km/hr 6.4 km/hr 49.4 km
03/08/2017 12.7C 8.1C 10.8C 1019.0 hPa 1010.6 hPa 1.4 mm 12.6 mm/hr 03:13 hrs 29.0 km/hr 8.0 km/hr 70.1 km
04/08/2017 14.8C 4.2C 7.9C 1024.2 hPa 1018.9 hPa 0.0 mm 0.0 mm/hr 00:00 hrs 11.3 km/hr 3.2 km/hr 8.3 km
05/08/2017 15.4C 4.2C 8.6C 1025.9 hPa 1023.5 hPa 0.0 mm 0.0 mm/hr 00:00 hrs 19.3 km/hr 4.8 km/hr 19.6 km
06/08/2017 15.7C 7.9C 11.3C 1026.3 hPa 1023.2 hPa 2.0 mm 5.6 mm/hr 23:51 hrs 19.3 km/hr 6.4 km/hr 21.5 km
07/08/2017 18.5C 12.2C 14.2C 1026.3 hPa 1023.5 hPa 6.2 mm 34.0 mm/hr 04:49 hrs 9.7 km/hr 1.6 km/hr 4.4 km
08/08/2017 17.0C 12.2C 14.1C 1025.5 hPa 1016.6 hPa 4.2 mm 2.4 mm/hr 16:52 hrs 19.3 km/hr 4.8 km/hr 23.9 km
09/08/2017 14.8C 12.6C 13.6C 1016.6 hPa 1004.9 hPa 23.0 mm 28.6 mm/hr 12:36 hrs 20.9 km/hr 6.4 km/hr 29.6 km
10/08/2017 14.8C 9.3C 11.6C 1006.3 hPa 1003.0 hPa 10.2 mm 62.2 mm/hr 22:19 hrs 11.3 km/hr 3.2 km/hr 8.6 km
11/08/2017 15.4C 7.1C 11.3C 1011.4 hPa 1000.2 hPa 15.0 mm 120.0 mm/hr 08:09 hrs 17.7 km/hr 4.8 km/hr 41.7 km
12/08/2017 15.1C 11.4C 13.6C 1013.9 hPa 1011.1 hPa 0.2 mm 0.0 mm/hr 00:00 hrs 22.5 km/hr 3.2 km/hr 30.4 km
13/08/2017 16.8C 9.2C 12.7C 1015.6 hPa 1009.4 hPa 8.4 mm 56.2 mm/hr 17:51 hrs 19.3 km/hr 4.8 km/hr 15.7 km
14/08/2017 14.5C 7.4C 11.0C 1010.1 hPa 1006.7 hPa 13.6 mm 109.8 mm/hr 08:54 hrs 17.7 km/hr 4.8 km/hr 15.6 km
15/08/2017 14.9C 6.7C 10.0C 1015.5 hPa 1009.4 hPa 8.8 mm 53.8 mm/hr 10:08 hrs 17.7 km/hr 3.2 km/hr 11.4 km
16/08/2017 15.3C 7.1C 10.9C 1018.3 hPa 1015.5 hPa 0.0 mm 0.0 mm/hr 00:00 hrs 14.5 km/hr 3.2 km/hr 6.2 km
17/08/2017 17.0C 7.7C 12.4C 1017.7 hPa 1008.9 hPa 0.4 mm 0.8 mm/hr 15:57 hrs 20.9 km/hr 4.8 km/hr 26.1 km
18/08/2017 16.6C 8.1C 12.2C 1008.9 hPa 995.4 hPa 0.2 mm 0.0 mm/hr 00:00 hrs 17.7 km/hr 3.2 km/hr 9.8 km
19/08/2017 15.1C 9.9C 11.4C 995.5 hPa 985.3 hPa 17.0 mm 98.4 mm/hr 12:35 hrs 12.9 km/hr 3.2 km/hr 13.5 km
20/08/2017 15.7C 9.5C 11.6C 997.4 hPa 987.0 hPa 5.0 mm 32.0 mm/hr 08:41 hrs 14.5 km/hr 3.2 km/hr 19.5 km
21/08/2017 15.9C 6.7C 10.6C 1010.9 hPa 997.2 hPa 2.4 mm 71.2 mm/hr 01:25 hrs 9.7 km/hr 1.6 km/hr 2.4 km
22/08/2017 15.4C 4.8C 9.1C 1023.1 hPa 1010.9 hPa 0.0 mm 0.0 mm/hr 00:00 hrs 9.7 km/hr 1.6 km/hr 2.1 km
23/08/2017 16.2C 3.8C 9.1C 1027.6 hPa 1022.9 hPa 0.2 mm 0.0 mm/hr 00:00 hrs 9.7 km/hr 3.2 km/hr 4.9 km
24/08/2017 16.8C 6.3C 10.3C 1029.6 hPa 1026.8 hPa 0.0 mm 0.0 mm/hr 00:00 hrs 14.5 km/hr 3.2 km/hr 14.7 km
25/08/2017 16.9C 6.9C 10.8C 1030.7 hPa 1028.1 hPa 0.2 mm 0.0 mm/hr 00:00 hrs 20.9 km/hr 4.8 km/hr 29.2 km
26/08/2017 18.2C 8.0C 11.7C 1030.1 hPa 1025.4 hPa 1.2 mm 8.0 mm/hr 16:55 hrs 17.7 km/hr 6.4 km/hr 35.7 km
27/08/2017 14.0C 10.4C 12.5C 1025.6 hPa 1013.8 hPa 7.8 mm 15.6 mm/hr 14:16 hrs 32.2 km/hr 9.7 km/hr 138.6 km
28/08/2017 18.2C 10.5C 13.8C 1016.9 hPa 1012.5 hPa 8.8 mm 23.0 mm/hr 02:45 hrs 30.6 km/hr 9.7 km/hr 44.9 km
29/08/2017 17.8C 8.6C 12.4C 1018.4 hPa 1015.6 hPa 0.2 mm 0.0 mm/hr 00:00 hrs 8.0 km/hr 1.6 km/hr 1.4 km
30/08/2017 15.9C 8.1C 11.6C 1016.7 hPa 1007.4 hPa 33.2 mm 44.6 mm/hr 09:15 hrs 12.9 km/hr 4.8 km/hr 8.6 km
Back to top 31/08/2017 16.4C 9.2C 12.4C 1009.9 hPa 1006.2 hPa 0.6 mm 0.0 mm/hr 00:00 hrs 8.0 km/hr 1.6 km/hr 0.7 km
Tabled Data - scroll down 2016 Temperature Pressure Rain Wind
for earlier years Maximum Minimum Average Maximum Minimum Day Total Maximum Rain Rate High Gust Highest Av Run
C C C hPa hPa mm mm/hr time km/h km/h km
01/08/2016 14.5C 7.4C 10.2C 1012.2 hPa 1001.3 hPa 15.0 mm 235.2 mm/hr 19:49 hrs 17.7 km/hr 4.8 km/hr 9.9 km
02/08/2016 14.8C 8.1C 10.8C 1012.8 hPa 1001.2 hPa 0.2 mm 0.0 mm/hr 00:00 hrs 17.7 km/hr 3.2 km/hr 20.1 km
03/08/2016 15.4C 9.9C 12.5C 1012.6 hPa 1006.2 hPa 10.2 mm 155.6 mm/hr 19:31 hrs 25.7 km/hr 6.4 km/hr 33.5 km
04/08/2016 12.8C 9.1C 11.5C 1007.3 hPa 1000.7 hPa 6.0 mm 7.2 mm/hr 18:32 hrs 12.9 km/hr 1.6 km/hr 2.7 km
05/08/2016 13.9C 7.6C 9.8C 1001.2 hPa 998.3 hPa 3.2 mm 16.4 mm/hr 18:50 hrs 16.1 km/hr 3.2 km/hr 11.0 km
06/08/2016 9.8C 6.2C 7.9C 1003.5 hPa 997.6 hPa 6.8 mm 26.6 mm/hr 01:24 hrs 22.5 km/hr 3.2 km/hr 20.7 km
07/08/2016 11.4C 3.3C 7.2C 1010.5 hPa 1003.3 hPa 0.0 mm 0.0 mm/hr 00:00 hrs 19.3 km/hr 3.2 km/hr 15.5 km
08/08/2016 12.2C 2.7C 5.9C 1015.8 hPa 1009.9 hPa 1.8 mm 18.2 mm/hr 00:49 hrs 9.7 km/hr 1.6 km/hr 2.6 km
09/08/2016 13.3C 2.8C 7.3C 1020.4 hPa 1015.5 hPa 5.4 mm 2.8 mm/hr 22:37 hrs 19.3 km/hr 4.8 km/hr 21.5 km
10/08/2016 10.4C 5.9C 8.1C 1021.2 hPa 1018.4 hPa 6.6 mm 4.6 mm/hr 01:20 hrs 22.5 km/hr 6.4 km/hr 45.7 km
11/08/2016 14.4C 7.9C 10.2C 1022.6 hPa 1019.6 hPa 0.6 mm 0.0 mm/hr 00:00 hrs 22.5 km/hr 4.8 km/hr 43.5 km
12/08/2016 15.0C 6.2C 10.7C 1022.2 hPa 1018.1 hPa 0.0 mm 0.0 mm/hr 00:00 hrs 17.7 km/hr 4.8 km/hr 19.5 km
13/08/2016 14.5C 6.2C 10.4C 1019.9 hPa 1015.9 hPa 2.4 mm 4.0 mm/hr 07:44 hrs 11.3 km/hr 1.6 km/hr 3.3 km
14/08/2016 14.1C 4.9C 9.2C 1021.4 hPa 1018.9 hPa 0.0 mm 0.0 mm/hr 00:00 hrs 14.5 km/hr 1.6 km/hr 0.3 km
15/08/2016 15.7C 4.9C 9.5C 1020.0 hPa 1016.7 hPa 0.0 mm 0.0 mm/hr 00:00 hrs 9.7 km/hr 1.6 km/hr 2.7 km
16/08/2016 17.7C 4.7C 9.6C 1025.4 hPa 1019.9 hPa 0.0 mm 0.0 mm/hr 00:00 hrs 14.5 km/hr 1.6 km/hr 6.3 km
17/08/2016 15.9C 5.2C 9.1C 1025.5 hPa 1022.9 hPa 0.2 mm 0.0 mm/hr 00:00 hrs 11.3 km/hr 1.6 km/hr 1.3 km
18/08/2016 15.4C 5.2C 8.7C 1027.7 hPa 1023.2 hPa 0.2 mm 0.0 mm/hr 00:00 hrs 12.9 km/hr 1.6 km/hr 1.8 km
19/08/2016 15.6C 5.2C 8.5C 1029.6 hPa 1026.3 hPa 0.0 mm 0.0 mm/hr 00:00 hrs 8.0 km/hr 1.6 km/hr 2.9 km
20/08/2016 16.1C 5.3C 10.2C 1028.4 hPa 1026.3 hPa 0.0 mm 0.0 mm/hr 00:00 hrs 17.7 km/hr 3.2 km/hr 11.3 km
21/08/2016 15.1C 5.9C 9.6C 1027.5 hPa 1024.2 hPa 0.0 mm 0.0 mm/hr 00:00 hrs 17.7 km/hr 6.4 km/hr 25.9 km
22/08/2016 16.1C 6.1C 10.9C 1024.6 hPa 1019.4 hPa 1.6 mm 3.4 mm/hr 21:05 hrs 16.1 km/hr 4.8 km/hr 14.8 km
23/08/2016 16.6C 6.2C 10.4C 1021.2 hPa 1019.2 hPa 0.2 mm 0.0 mm/hr 00:00 hrs 11.3 km/hr 1.6 km/hr 2.4 km
24/08/2016 14.1C 7.4C 9.9C 1020.2 hPa 1011.7 hPa 24.0 mm 30.0 mm/hr 19:30 hrs 19.3 km/hr 4.8 km/hr 8.3 km
25/08/2016 16.9C 12.4C 13.8C 1012.8 hPa 998.7 hPa 28.4 mm 15.0 mm/hr 17:07 hrs 33.8 km/hr 9.7 km/hr 43.6 km
26/08/2016 17.2C 11.0C 14.6C 1006.6 hPa 998.7 hPa 3.8 mm 5.2 mm/hr 18:37 hrs 29.0 km/hr 9.7 km/hr 89.9 km
27/08/2016 15.1C 8.6C 11.7C 1019.2 hPa 1006.4 hPa 1.4 mm 0.0 mm/hr 00:00 hrs 20.9 km/hr 4.8 km/hr 41.6 km
28/08/2016 17.1C 7.3C 10.7C 1021.0 hPa 1015.6 hPa 0.2 mm 0.0 mm/hr 00:00 hrs 9.7 km/hr 1.6 km/hr 0.1 km
29/08/2016 13.1C 7.8C 10.5C 1015.6 hPa 1007.6 hPa 2.8 mm 4.8 mm/hr 11:25 hrs 19.3 km/hr 3.2 km/hr 15.1 km
30/08/2016 16.2C 8.4C 12.2C 1023.4 hPa 1011.9 hPa 0.8 mm 14.2 mm/hr 04:24 hrs 12.9 km/hr 3.2 km/hr 6.2 km
Back to top 31/08/2016 16.6C 5.8C 10.1C 1028.5 hPa 1023.3 hPa 0.0 mm 0.0 mm/hr 00:00 hrs 9.7 km/hr 1.6 km/hr 1.3 km
Tabled Data - scroll down 2015 Temperature Pressure Rain Wind
for earlier years Maximum Minimum Average Maximum Minimum Day Total Maximum Rain Rate High Gust Highest Av Run
C C C hPa hPa mm mm/hr time km/h km/h km
01/08/2015 16.1C 6.1C 10.6C 1025.2 hPa 1022.9 hPa 0.0 mm 0.0 mm/hr 00:00 hrs 12.9 km/hr 3.2 km/hr 8.3 km
02/08/2015 15.4C 9.7C 12.5C 1024.7 hPa 1022.9 hPa 6.0 mm 18.4 mm/hr 11:50 hrs 11.3 km/hr 3.2 km/hr 8.6 km
03/08/2015 16.8C 12.7C 14.1C 1024.1 hPa 1020.4 hPa 0.2 mm 0.0 mm/hr 00:00 hrs 19.3 km/hr 4.8 km/hr 29.1 km
04/08/2015 16.2C 10.8C 13.5C 1020.6 hPa 1014.6 hPa 11.4 mm 15.0 mm/hr 21:16 hrs 25.7 km/hr 6.4 km/hr 44.5 km
05/08/2015 13.3C 10.1C 11.4C 1016.5 hPa 1005.8 hPa 24.8 mm 57.0 mm/hr 23:24 hrs 9.7 km/hr 1.6 km/hr 7.0 km
06/08/2015 14.9C 9.3C 12.3C 1005.9 hPa 1001.3 hPa 23.0 mm 97.6 mm/hr 01:43 hrs 20.9 km/hr 6.4 km/hr 20.9 km
07/08/2015 13.4C 8.6C 10.3C 1001.6 hPa 999.1 hPa 15.4 mm 93.0 mm/hr 23:07 hrs 17.7 km/hr 4.8 km/hr 23.7 km
08/08/2015 12.2C 4.8C 8.7C 1005.1 hPa 998.4 hPa 5.6 mm 84.8 mm/hr 00:34 hrs 19.3 km/hr 4.8 km/hr 35.3 km
09/08/2015 12.3C 3.6C 6.8C 1010.2 hPa 1004.5 hPa 8.2 mm 83.4 mm/hr 01:23 hrs 9.7 km/hr 1.6 km/hr 0.6 km
10/08/2015 11.8C 2.2C 5.8C 1016.5 hPa 1010.1 hPa 6.0 mm 20.8 mm/hr 17:49 hrs 9.7 km/hr 3.2 km/hr 7.7 km
11/08/2015 11.2C 1.5C 6.3C 1020.2 hPa 1016.3 hPa 0.2 mm 0.0 mm/hr 00:00 hrs 17.7 km/hr 3.2 km/hr 17.5 km
12/08/2015 13.3C 3.6C 7.2C 1021.8 hPa 1018.7 hPa 0.0 mm 0.0 mm/hr 00:00 hrs 11.3 km/hr 1.6 km/hr 8.7 km
13/08/2015 14.6C 2.6C 8.0C 1022.2 hPa 1017.1 hPa 0.0 mm 0.0 mm/hr 00:00 hrs 12.9 km/hr 3.2 km/hr 11.2 km
14/08/2015 14.4C 8.2C 11.4C 1017.5 hPa 1004.3 hPa 10.8 mm 18.2 mm/hr 11:39 hrs 29.0 km/hr 8.0 km/hr 68.1 km
15/08/2015 13.6C 7.8C 10.0C 1005.0 hPa 1002.8 hPa 12.8 mm 106.6 mm/hr 02:59 hrs 12.9 km/hr 3.2 km/hr 11.7 km
16/08/2015 15.2C 7.0C 10.6C 1012.1 hPa 1004.2 hPa 1.8 mm 9.6 mm/hr 02:03 hrs 12.9 km/hr 1.6 km/hr 3.9 km
17/08/2015 16.2C 5.1C 9.8C 1021.9 hPa 1012.1 hPa 0.0 mm 0.0 mm/hr 00:00 hrs 19.3 km/hr 6.4 km/hr 18.4 km
18/08/2015 13.9C 6.4C 10.4C 1023.5 hPa 1019.9 hPa 7.8 mm 17.6 mm/hr 15:35 hrs 20.9 km/hr 8.0 km/hr 23.0 km
19/08/2015 13.9C 7.3C 10.0C 1020.1 hPa 1012.7 hPa 11.8 mm 117.6 mm/hr 13:00 hrs 24.1 km/hr 8.0 km/hr 28.2 km
20/08/2015 13.9C 5.9C 9.3C 1023.8 hPa 1017.1 hPa 3.0 mm 13.0 mm/hr 14:18 hrs 14.5 km/hr 4.8 km/hr 16.7 km
21/08/2015 14.2C 4.1C 8.2C 1028.9 hPa 1023.6 hPa 0.2 mm 0.0 mm/hr 00:00 hrs 11.3 km/hr 1.6 km/hr 1.4 km
22/08/2015 13.4C 4.0C 9.5C 1030.6 hPa 1028.3 hPa 0.4 mm 1.4 mm/hr 22:11 hrs 17.7 km/hr 4.8 km/hr 20.6 km
23/08/2015 17.4C 7.1C 10.8C 1029.6 hPa 1026.8 hPa 0.2 mm 0.0 mm/hr 00:00 hrs 17.7 km/hr 6.4 km/hr 22.2 km
24/08/2015 17.3C 6.8C 11.5C 1028.3 hPa 1023.4 hPa 0.2 mm 0.0 mm/hr 00:00 hrs 17.7 km/hr 6.4 km/hr 17.3 km
25/08/2015 13.7C 7.4C 11.5C 1023.5 hPa 1018.6 hPa 11.0 mm 22.0 mm/hr 16:39 hrs 27.4 km/hr 6.4 km/hr 35.5 km
26/08/2015 15.1C 5.6C 10.1C 1030.6 hPa 1022.2 hPa 0.0 mm 0.0 mm/hr 00:00 hrs 14.5 km/hr 3.2 km/hr 17.4 km
27/08/2015 15.8C 5.3C 9.4C 1033.7 hPa 1030.4 hPa 0.0 mm 0.0 mm/hr 00:00 hrs 16.1 km/hr 4.8 km/hr 22.9 km
28/08/2015 16.8C 5.3C 9.6C 1033.7 hPa 1030.4 hPa 0.0 mm 0.0 mm/hr 00:00 hrs 12.9 km/hr 3.2 km/hr 10.9 km
29/08/2015 14.9C 5.2C 10.1C 1030.9 hPa 1023.1 hPa 1.6 mm 0.0 mm/hr 00:00 hrs 14.5 km/hr 4.8 km/hr 10.1 km
30/08/2015 14.5C 10.7C 12.8C 1023.3 hPa 1016.3 hPa 23.6 mm 32.8 mm/hr 14:17 hrs 17.7 km/hr 3.2 km/hr 10.9 km
Back to top 31/08/2015 14.3C 11.6C 13.0C 1016.5 hPa 1010.4 hPa 22.4 mm 15.8 mm/hr 11:59 hrs 16.1 km/hr 4.8 km/hr 21.5 km
Tabled Data - scroll down 2014 Temperature Pressure Rain Wind
for earlier years Maximum Minimum Average Maximum Minimum Day Total Maximum Rain Rate High Gust Highest Av Run
C C C hPa hPa mm mm/hr time km/h km/h km
01/08/2014 17.2C 7.8C 12.3C 1029.1 hPa 1025.4 hPa 0.4 mm 0.0 mm/hr 00:00 hrs 11.3 km/hr 3.2 km/hr 9.1 km
02/08/2014 20.6C 13.1C 16.1C 1026.3 hPa 1019.4 hPa 0.4 mm 0.0 mm/hr 00:00 hrs 24.1 km/hr 8.0 km/hr 55.7 km
03/08/2014 15.8C 7.6C 12.5C 1020.0 hPa 1016.3 hPa 26.0 mm 48.0 mm/hr 06:14 hrs 22.5 km/hr 6.4 km/hr 22.7 km
04/08/2014 14.4C 5.6C 8.6C 1020.3 hPa 1016.0 hPa 4.6 mm 44.8 mm/hr 14:32 hrs 9.7 km/hr 1.6 km/hr 3.9 km
05/08/2014 14.2C 6.0C 9.8C 1020.1 hPa 1017.8 hPa 3.2 mm 10.2 mm/hr 06:49 hrs 20.9 km/hr 4.8 km/hr 34.7 km
06/08/2014 14.1C 7.2C 10.4C 1018.7 hPa 1014.7 hPa 3.8 mm 22.8 mm/hr 01:58 hrs 20.9 km/hr 4.8 km/hr 42.3 km
07/08/2014 13.7C 6.7C 11.0C 1019.2 hPa 1014.3 hPa 3.0 mm 153.6 mm/hr 23:11 hrs 19.3 km/hr 3.2 km/hr 22.8 km
08/08/2014 13.4C 7.6C 10.4C 1018.0 hPa 1013.6 hPa 6.4 mm 36.2 mm/hr 01:13 hrs 25.7 km/hr 4.8 km/hr 48.1 km
09/08/2014 12.7C 3.4C 7.3C 1026.9 hPa 1018.0 hPa 2.0 mm 38.2 mm/hr 02:14 hrs 14.5 km/hr 3.2 km/hr 13.7 km
10/08/2014 14.2C 3.6C 8.2C 1027.2 hPa 1024.2 hPa 2.2 mm 19.0 mm/hr 17:36 hrs 12.9 km/hr 3.2 km/hr 5.7 km
11/08/2014 14.8C 5.6C 10.7C 1024.6 hPa 1014.6 hPa 2.4 mm 5.4 mm/hr 23:32 hrs 22.5 km/hr 6.4 km/hr 55.9 km
12/08/2014 14.4C 6.8C 10.7C 1014.8 hPa 1010.3 hPa 16.0 mm 46.8 mm/hr 20:45 hrs 17.7 km/hr 4.8 km/hr 47.7 km
13/08/2014 13.5C 6.1C 9.2C 1014.0 hPa 1009.3 hPa 6.6 mm 68.2 mm/hr 23:54 hrs 16.1 km/hr 4.8 km/hr 46.9 km
14/08/2014 13.4C 7.5C 9.8C 1009.5 hPa 1003.7 hPa 8.6 mm 56.2 mm/hr 15:28 hrs 25.7 km/hr 8.0 km/hr 101.8 km
15/08/2014 14.2C 6.8C 10.1C 1013.5 hPa 1006.4 hPa 3.0 mm 16.0 mm/hr 06:32 hrs 24.1 km/hr 6.4 km/hr 67.4 km
16/08/2014 13.9C 9.7C 11.5C 1018.4 hPa 1013.0 hPa 0.2 mm 0.0 mm/hr 00:00 hrs 16.1 km/hr 3.2 km/hr 25.8 km
17/08/2014 13.4C 8.1C 10.3C 1024.6 hPa 1018.4 hPa 0.4 mm 0.0 mm/hr 00:00 hrs 6.4 km/hr 1.6 km/hr 0.9 km
18/08/2014 14.4C 7.0C 10.5C 1026.0 hPa 1022.6 hPa 0.0 mm 0.0 mm/hr 00:00 hrs 8.0 km/hr 1.6 km/hr 0.5 km
19/08/2014 13.8C 6.9C 10.8C 1023.8 hPa 1008.6 hPa 9.0 mm 6.4 mm/hr 17:20 hrs 20.9 km/hr 6.4 km/hr 64.8 km
20/08/2014 15.4C 11.2C 13.1C 1008.6 hPa 1000.0 hPa 7.4 mm 12.4 mm/hr 03:24 hrs 12.9 km/hr 4.8 km/hr 13.8 km
21/08/2014 15.2C 7.4C 11.7C 1020.6 hPa 1000.5 hPa 5.0 mm 33.2 mm/hr 00:11 hrs 22.5 km/hr 4.8 km/hr 38.1 km
22/08/2014 12.7C 2.3C 7.5C 1030.4 hPa 1020.6 hPa 0.0 mm 0.0 mm/hr 00:00 hrs 20.9 km/hr 3.2 km/hr 19.5 km
23/08/2014 15.4C 4.2C 9.0C 1031.0 hPa 1028.5 hPa 0.0 mm 0.0 mm/hr 00:00 hrs 17.7 km/hr 1.6 km/hr 11.1 km
24/08/2014 16.5C 5.3C 9.6C 1031.9 hPa 1029.3 hPa 0.0 mm 0.0 mm/hr 00:00 hrs 8.0 km/hr 3.2 km/hr 2.5 km
25/08/2014 14.9C 5.2C 9.4C 1031.9 hPa 1028.5 hPa 0.0 mm 0.0 mm/hr 00:00 hrs 8.0 km/hr 3.2 km/hr 7.4 km
26/08/2014 16.4C 6.2C 10.0C 1030.1 hPa 1027.3 hPa 0.0 mm 0.0 mm/hr 00:00 hrs 11.3 km/hr 4.8 km/hr 17.5 km
27/08/2014 15.3C 6.2C 9.4C 1031.8 hPa 1028.9 hPa 0.0 mm 0.0 mm/hr 00:00 hrs 19.3 km/hr 4.8 km/hr 28.0 km
28/08/2014 15.0C 8.5C 10.7C 1031.9 hPa 1029.7 hPa 0.6 mm 0.0 mm/hr 00:00 hrs 27.4 km/hr 6.4 km/hr 62.3 km
29/08/2014 16.4C 8.6C 11.9C 1030.8 hPa 1026.8 hPa 0.0 mm 0.0 mm/hr 00:00 hrs 32.2 km/hr 9.7 km/hr 114.5 km
30/08/2014 11.7C 10.4C 10.9C 1026.9 hPa 1022.0 hPa 12.4 mm 6.4 mm/hr 14:29 hrs 25.7 km/hr 8.0 km/hr 123.2 km
Back to top 31/08/2014 12.1C 9.3C 10.5C 1022.4 hPa 1015.1 hPa 9.4 mm 3.4 mm/hr 00:32 hrs 32.2 km/hr 8.0 km/hr 120.7 km
Tabled Data - scroll down 2013 Temperature Pressure Rain Wind
for earlier years Maximum Minimum Average Maximum Minimum Day Total Maximum Rain Rate High Gust Highest Av Run
C C C hPa hPa mm mm/hr time km/h km/h km
01/08/2013 13.9C 10.9C 12.1C 1025.4 hPa 1017.7 hPa 1.0 mm 2.4 mm/hr 18:51 hrs 29.0 km/hr 8.0 km/hr 108.7 km
02/08/2013 14.5C 11.7C 13.0C 1018.0 hPa 1007.8 hPa 1.6 mm 1.4 mm/hr 11:26 hrs 29.0 km/hr 8.0 km/hr 135.5 km
03/08/2013 16.9C 9.9C 13.0C 1009.8 hPa 1005.7 hPa 0.0 mm 0.0 mm/hr 00:00 hrs 17.7 km/hr 4.8 km/hr 31.0 km
04/08/2013 17.7C 10.3C 12.9C 1013.9 hPa 1009.4 hPa 0.2 mm 0.0 mm/hr 00:00 hrs 1.6 km/hr 0.0 km/hr 0.0 km
05/08/2013 17.1C 11.4C 13.4C 1017.8 hPa 1013.3 hPa 2.2 mm 2.8 mm/hr 06:53 hrs 9.7 km/hr 3.2 km/hr 10.8 km
06/08/2013 17.3C 11.1C 13.8C 1020.7 hPa 1016.9 hPa 0.0 mm 0.0 mm/hr 00:00 hrs 11.3 km/hr 3.2 km/hr 14.7 km
07/08/2013 17.7C 9.6C 13.2C 1021.0 hPa 1018.2 hPa 0.0 mm 0.0 mm/hr 00:00 hrs 12.9 km/hr 4.8 km/hr 18.5 km
08/08/2013 18.4C 8.3C 12.1C 1020.8 hPa 1018.1 hPa 0.2 mm 0.0 mm/hr 00:00 hrs 11.3 km/hr 4.8 km/hr 13.6 km
09/08/2013 17.1C 8.8C 12.2C 1020.6 hPa 1010.4 hPa 0.2 mm 0.0 mm/hr 00:00 hrs 17.7 km/hr 4.8 km/hr 36.1 km
10/08/2013 14.3C 10.2C 12.3C 1010.4 hPa 995.6 hPa 4.8 mm 4.2 mm/hr 23:27 hrs 12.9 km/hr 3.2 km/hr 32.1 km
11/08/2013 14.1C 9.3C 11.9C 998.0 hPa 994.6 hPa 11.2 mm 94.4 mm/hr 19:31 hrs 16.1 km/hr 6.4 km/hr 68.4 km
12/08/2013 13.9C 9.4C 10.6C 1005.9 hPa 997.7 hPa 7.2 mm 45.4 mm/hr 13:03 hrs 22.5 km/hr 6.4 km/hr 88.7 km
13/08/2013 16.0C 9.3C 12.7C 1008.6 hPa 1003.3 hPa 2.6 mm 13.4 mm/hr 18:37 hrs 24.1 km/hr 6.4 km/hr 71.7 km
14/08/2013 15.9C 9.2C 11.7C 1013.6 hPa 1003.1 hPa 0.6 mm 5.4 mm/hr 01:58 hrs 16.1 km/hr 4.8 km/hr 40.9 km
15/08/2013 14.8C 8.1C 11.2C 1017.7 hPa 1013.4 hPa 0.0 mm 0.0 mm/hr 00:00 hrs 14.5 km/hr 3.2 km/hr 20.3 km
16/08/2013 14.8C 8.3C 10.9C 1015.8 hPa 1003.6 hPa 23.2 mm 93.0 mm/hr 15:03 hrs 19.3 km/hr 8.0 km/hr 34.5 km
17/08/2013 14.0C 8.8C 10.7C 1006.5 hPa 999.7 hPa 20.2 mm 52.6 mm/hr 03:18 hrs 16.1 km/hr 4.8 km/hr 43.0 km
18/08/2013 15.8C 7.9C 11.3C 1011.3 hPa 1002.9 hPa 9.6 mm 20.4 mm/hr 00:27 hrs 11.3 km/hr 3.2 km/hr 12.0 km
19/08/2013 15.2C 7.4C 10.4C 1015.3 hPa 1010.3 hPa 13.2 mm 47.6 mm/hr 16:24 hrs 6.4 km/hr 1.6 km/hr 2.3 km
20/08/2013 13.0C 9.8C 10.8C 1016.9 hPa 1014.9 hPa 3.0 mm 5.6 mm/hr 06:06 hrs 12.9 km/hr 3.2 km/hr 33.6 km
21/08/2013 12.2C 10.6C 11.4C 1015.3 hPa 1009.4 hPa 15.4 mm 46.0 mm/hr 10:28 hrs 19.3 km/hr 6.4 km/hr 71.6 km
22/08/2013 16.2C 8.6C 11.7C 1012.9 hPa 1009.4 hPa 0.6 mm 1.2 mm/hr 01:03 hrs 8.0 km/hr 1.6 km/hr 1.8 km
23/08/2013 15.2C 6.8C 9.7C 1015.8 hPa 1012.1 hPa 8.0 mm 140.4 mm/hr 11:32 hrs 9.7 km/hr 3.2 km/hr 4.0 km
24/08/2013 16.3C 6.3C 10.5C 1015.8 hPa 1007.3 hPa 0.2 mm 0.0 mm/hr 00:00 hrs 17.7 km/hr 6.4 km/hr 16.8 km
25/08/2013 14.0C 7.9C 11.1C 1007.9 hPa 1001.6 hPa 6.4 mm 39.8 mm/hr 04:55 hrs 11.3 km/hr 3.2 km/hr 5.3 km
26/08/2013 13.9C 7.1C 10.5C 1015.5 hPa 1007.8 hPa 2.2 mm 2.6 mm/hr 08:57 hrs 12.9 km/hr 4.8 km/hr 26.8 km
27/08/2013 15.1C 8.5C 11.1C 1019.2 hPa 1015.3 hPa 2.2 mm 19.2 mm/hr 08:57 hrs 12.9 km/hr 3.2 km/hr 15.8 km
28/08/2013 16.8C 6.8C 11.3C 1019.2 hPa 1013.1 hPa 1.8 mm 5.6 mm/hr 23:24 hrs 14.5 km/hr 3.2 km/hr 13.3 km
29/08/2013 13.0C 7.0C 9.5C 1013.2 hPa 1009.3 hPa 22.6 mm 36.2 mm/hr 09:05 hrs 16.1 km/hr 4.8 km/hr 19.4 km
30/08/2013 12.0C 6.2C 8.5C 1022.3 hPa 1011.0 hPa 2.4 mm 4.2 mm/hr 00:04 hrs 17.7 km/hr 6.4 km/hr 35.8 km
Back to top 31/08/2013 15.1C 6.4C 9.9C 1026.3 hPa 1022.0 hPa 0.0 mm 0.0 mm/hr 00:00 hrs 16.1 km/hr 6.4 km/hr 41.0 km
Tabled Data - scroll down 2012 Temperature Pressure Rain Wind
for earlier years Maximum Minimum Average Maximum Minimum Day Total Maximum Rain Rate High Gust Highest Av Run
C C C hPa hPa mm mm/hr time km/h km/h km
01/08/2012 14.2C 6.3C 10.7C 1012.2 hPa 1003.4 hPa 26.2 mm 68.2 mm/hr 19:54 hrs 20.9 km/hr 6.4 km/hr 60.3 km
02/08/2012 13.4C 10.3C 11.5C 1013.2 hPa 1011.3 hPa 18.6 mm 20.2 mm/hr 02:51 hrs 12.9 km/hr 4.8 km/hr 50.3 km
03/08/2012 14.4C 8.2C 11.1C 1014.9 hPa 1012.9 hPa 0.4 mm 0.0 mm/hr 00:00 hrs 11.3 km/hr 3.2 km/hr 15.7 km
04/08/2012 14.3C 8.7C 11.0C 1014.2 hPa 1010.7 hPa 0.2 mm 0.0 mm/hr 00:00 hrs 9.7 km/hr 3.2 km/hr 8.6 km
05/08/2012 15.3C 8.1C 11.1C 1011.0 hPa 1006.4 hPa 1.4 mm 3.2 mm/hr 18:07 hrs 9.7 km/hr 3.2 km/hr 11.5 km
06/08/2012 14.4C 7.6C 10.4C 1012.3 hPa 1007.5 hPa 1.2 mm 15.4 mm/hr 05:54 hrs 9.7 km/hr 3.2 km/hr 11.2 km
07/08/2012 15.4C 7.2C 10.6C 1012.6 hPa 1006.2 hPa 4.0 mm 32.6 mm/hr 19:22 hrs 17.7 km/hr 4.8 km/hr 23.8 km
08/08/2012 11.4C 7.2C 8.7C 1006.8 hPa 1000.7 hPa 10.6 mm 37.0 mm/hr 15:31 hrs 17.7 km/hr 4.8 km/hr 26.7 km
09/08/2012 14.9C 6.8C 9.9C 1007.9 hPa 999.6 hPa 5.2 mm 58.8 mm/hr 00:38 hrs 11.3 km/hr 3.2 km/hr 26.5 km
10/08/2012 15.2C 6.3C 9.8C 1015.7 hPa 1007.8 hPa 0.2 mm 0.0 mm/hr 00:00 hrs 6.4 km/hr 1.6 km/hr 1.6 km
11/08/2012 14.4C 6.8C 11.3C 1015.9 hPa 1006.8 hPa 6.8 mm 7.6 mm/hr 18:20 hrs 29.0 km/hr 8.0 km/hr 92.5 km
12/08/2012 15.8C 10.8C 12.7C 1007.0 hPa 999.6 hPa 17.4 mm 40.2 mm/hr 02:00 hrs 19.3 km/hr 6.4 km/hr 25.1 km
13/08/2012 15.5C 9.3C 12.0C 1007.8 hPa 997.3 hPa 4.2 mm 56.2 mm/hr 19:41 hrs 11.3 km/hr 3.2 km/hr 23.7 km
14/08/2012 15.6C 7.3C 11.3C 1013.7 hPa 1007.6 hPa 2.6 mm 48.4 mm/hr 02:36 hrs 12.9 km/hr 4.8 km/hr 15.5 km
15/08/2012 14.7C 6.0C 9.6C 1013.9 hPa 1008.7 hPa 12.6 mm 47.6 mm/hr 15:27 hrs 17.7 km/hr 6.4 km/hr 19.8 km
16/08/2012 14.8C 7.5C 10.6C 1015.0 hPa 1010.0 hPa 3.2 mm 15.6 mm/hr 01:26 hrs 14.5 km/hr 4.8 km/hr 32.5 km
17/08/2012 15.9C 6.1C 10.2C 1018.1 hPa 1014.7 hPa 0.2 mm 0.0 mm/hr 00:00 hrs 12.9 km/hr 4.8 km/hr 11.2 km
18/08/2012 16.7C 8.2C 12.4C 1022.5 hPa 1017.1 hPa 15.2 mm 47.4 mm/hr 00:45 hrs 12.9 km/hr 3.2 km/hr 14.2 km
19/08/2012 17.8C 10.8C 13.2C 1022.4 hPa 1011.3 hPa 15.0 mm 38.8 mm/hr 17:11 hrs 14.5 km/hr 6.4 km/hr 25.2 km
20/08/2012 16.0C 10.8C 12.9C 1011.5 hPa 1006.5 hPa 9.0 mm 105.6 mm/hr 09:30 hrs 25.7 km/hr 6.4 km/hr 52.2 km
21/08/2012 16.1C 8.5C 11.4C 1015.6 hPa 1007.1 hPa 6.2 mm 43.8 mm/hr 06:48 hrs 14.5 km/hr 4.8 km/hr 43.3 km
22/08/2012 14.6C 6.7C 9.9C 1023.1 hPa 1015.5 hPa 4.8 mm 46.6 mm/hr 05:07 hrs 9.7 km/hr 3.2 km/hr 9.8 km
23/08/2012 16.5C 6.8C 10.4C 1026.9 hPa 1022.9 hPa 0.0 mm 0.0 mm/hr 00:00 hrs 9.7 km/hr 3.2 km/hr 11.0 km
24/08/2012 16.7C 7.1C 10.5C 1028.5 hPa 1026.4 hPa 0.0 mm 0.0 mm/hr 00:00 hrs 11.3 km/hr 3.2 km/hr 18.3 km
25/08/2012 15.8C 6.6C 10.5C 1028.8 hPa 1025.8 hPa 0.0 mm 0.0 mm/hr 00:00 hrs 16.1 km/hr 6.4 km/hr 24.7 km
26/08/2012 16.7C 6.9C 11.1C 1026.7 hPa 1021.1 hPa 0.0 mm 0.0 mm/hr 00:00 hrs 17.7 km/hr 6.4 km/hr 28.1 km
27/08/2012 16.7C 8.2C 12.1C 1021.2 hPa 1017.4 hPa 1.0 mm 1.4 mm/hr 07:05 hrs 17.7 km/hr 6.4 km/hr 26.2 km
28/08/2012 15.9C 6.3C 10.2C 1022.4 hPa 1019.2 hPa 0.2 mm 0.0 mm/hr 00:00 hrs 12.9 km/hr 4.8 km/hr 20.9 km
29/08/2012 16.6C 5.9C 10.4C 1022.2 hPa 1017.7 hPa 0.0 mm 0.0 mm/hr 00:00 hrs 17.7 km/hr 4.8 km/hr 43.8 km
30/08/2012 14.9C 9.0C 10.9C 1018.3 hPa 1014.4 hPa 0.0 mm 0.0 mm/hr 00:00 hrs 22.5 km/hr 8.0 km/hr 78.5 km
Back to top 31/08/2012 17.7C 7.6C 11.5C 1024.5 hPa 1017.6 hPa 0.0 mm 0.0 mm/hr 00:00 hrs 17.7 km/hr 4.8 km/hr 29.0 km
2011 Temperature Pressure Rain Wind
Maximum Minimum Average Maximum Minimum Day Total Maximum Rain Rate High Gust Highest Av Run
C C C hPa hPa mm mm/hr time km/h km/h km
01/08/2011 14.1C 6.5C 9.1C 1025.7 hPa 1022.7 hPa 1.0 mm 2.4 mm/hr 04:37 hrs 9.7 km/hr 2.8 km/hr 6.1 km
02/08/2011 14.3C 5.7C 8.9C 1025.6 hPa 1021.3 hPa 0.0 mm 0.0 mm/hr 00:00 hrs 9.7 km/hr 3.7 km/hr 11.5 km
03/08/2011 14.4C 6.5C 9.2C 1021.4 hPa 1015.8 hPa 0.0 mm 0.0 mm/hr 00:00 hrs 11.3 km/hr 3.4 km/hr 15.9 km
04/08/2011 14.7C 5.4C 9.9C 1019.3 hPa 1016.8 hPa 0.0 mm 0.0 mm/hr 00:00 hrs 19.3 km/hr 4.1 km/hr 25.7 km
05/08/2011 14.4C 6.2C 10.8C 1018.2 hPa 1013.5 hPa 11.6 mm 35.2 mm/hr 05:58 hrs 12.9 km/hr 3.8 km/hr 28.7 km
06/08/2011 14.4C 5.4C 10.4C 1019.5 hPa 1015.1 hPa 0.2 mm 0.0 mm/hr 00:00 hrs 12.9 km/hr 3.0 km/hr 26.7 km
07/08/2011 15.1C 8.6C 12.0C 1015.3 hPa 1009.0 hPa 14.0 mm 60.4 mm/hr 13:40 hrs 20.9 km/hr 5.7 km/hr 81.7 km
08/08/2011 13.4C 6.4C 9.6C 1020.2 hPa 1014.6 hPa 0.2 mm 0.0 mm/hr 00:00 hrs 12.9 km/hr 4.3 km/hr 28.3 km
09/08/2011 13.6C 8.7C 10.4C 1021.7 hPa 1018.9 hPa 0.0 mm 0.0 mm/hr 00:00 hrs 8.0 km/hr 2.2 km/hr 5.7 km
10/08/2011 16.0C 6.1C 11.0C 1020.2 hPa 1012.7 hPa 0.0 mm 0.0 mm/hr 00:00 hrs 14.5 km/hr 5.3 km/hr 45.7 km
11/08/2011 17.9C 11.6C 13.5C 1012.7 hPa 1008.3 hPa 5.0 mm 5.4 mm/hr 05:10 hrs 11.3 km/hr 4.0 km/hr 18.7 km
12/08/2011 15.2C 8.8C 11.7C 1009.7 hPa 1007.6 hPa 6.4 mm 41.8 mm/hr 00:28 hrs 12.9 km/hr 4.9 km/hr 24.7 km
13/08/2011 16.7C 7.8C 10.8C 1008.7 hPa 1002.2 hPa 0.2 mm 0.0 mm/hr 00:00 hrs 8.0 km/hr 2.8 km/hr 8.9 km
14/08/2011 12.8C 7.4C 9.6C 1004.4 hPa 1001.6 hPa 5.2 mm 44.8 mm/hr 11:55 hrs 25.7 km/hr 6.4 km/hr 84.7 km
15/08/2011 8.9C 2.1C 5.9C 1007.1 hPa 997.5 hPa 6.0 mm 34.8 mm/hr 06:40 hrs 30.6 km/hr 9.3 km/hr 89.5 km
16/08/2011 7.6C 1.3C 3.6C 1009.6 hPa 1005.3 hPa 2.0 mm 7.6 mm/hr 14:14 hrs 20.9 km/hr 4.9 km/hr 13.7 km
17/08/2011 11.5C 1.6C 5.5C 1013.8 hPa 1009.2 hPa 0.2 mm 0.0 mm/hr 00:00 hrs 9.7 km/hr 2.7 km/hr 12.7 km
18/08/2011 12.4C 2.7C 6.5C 1018.2 hPa 1013.4 hPa 0.0 mm 0.0 mm/hr 00:00 hrs 12.9 km/hr 3.7 km/hr 18.3 km
19/08/2011 13.4C 1.6C 6.6C 1023.9 hPa 1018.1 hPa 0.0 mm 0.0 mm/hr 00:00 hrs 8.0 km/hr 2.9 km/hr 10.2 km
20/08/2011 13.6C 2.9C 7.0C 1027.5 hPa 1023.7 hPa 0.0 mm 0.0 mm/hr 00:00 hrs 9.7 km/hr 2.7 km/hr 9.3 km
21/08/2011 14.4C 2.8C 7.8C 1031.7 hPa 1026.8 hPa 0.0 mm 0.0 mm/hr 00:00 hrs 9.7 km/hr 3.3 km/hr 18.2 km
22/08/2011 15.7C 4.9C 8.9C 1034.9 hPa 1031.5 hPa 0.0 mm 0.0 mm/hr 00:00 hrs 9.7 km/hr 3.1 km/hr 11.0 km
23/08/2011 14.1C 6.5C 10.0C 1036.0 hPa 1033.2 hPa 0.4 mm 0.0 mm/hr 00:00 hrs 8.0 km/hr 2.6 km/hr 11.0 km
24/08/2011 14.4C 8.9C 10.8C 1034.3 hPa 1029.4 hPa 0.2 mm 0.0 mm/hr 00:00 hrs 9.7 km/hr 2.7 km/hr 12.1 km
25/08/2011 13.5C 7.5C 10.6C 1030.0 hPa 1026.9 hPa 0.0 mm 0.0 mm/hr 00:00 hrs 6.4 km/hr 2.0 km/hr 7.0 km
26/08/2011 15.9C 6.1C 9.8C 1027.9 hPa 1024.5 hPa 0.0 mm 0.0 mm/hr 00:00 hrs 11.3 km/hr 2.4 km/hr 10.1 km
27/08/2011 16.9C 6.4C 11.1C 1026.7 hPa 1023.7 hPa 0.0 mm 0.0 mm/hr 00:00 hrs 12.9 km/hr 3.7 km/hr 15.7 km
28/08/2011 17.4C 7.3C 11.9C 1027.5 hPa 1025.2 hPa 0.0 mm 0.0 mm/hr 00:00 hrs 9.7 km/hr 2.2 km/hr 6.8 km
29/08/2011 15.6C 9.0C 11.9C 1026.1 hPa 1016.9 hPa 1.6 mm 3.4 mm/hr 23:38 hrs 12.9 km/hr 4.8 km/hr 40.9 km
30/08/2011 17.2C 12.4C 14.3C 1016.9 hPa 1011.2 hPa 11.4 mm 15.0 mm/hr 01:16 hrs 11.3 km/hr 3.0 km/hr 16.6 km
Back to top 31/08/2011 15.5C 7.7C 11.9C 1014.2 hPa 1011.7 hPa 2.8 mm 10.4 mm/hr 19:36 hrs 16.1 km/hr 3.4 km/hr 28.9 km
2010 Temperature Pressure Rain Wind
Maximum Minimum Average Maximum Minimum Day Total Maximum Rain Rate High Gust Highest Av Run
C C C hPa hPa mm mm/hr time km/h km/h km
01/08/2010 13.3C 8.7C 11.6C 1031.3 hPa 1019.9 hPa 5.6 mm 9.4 mm/hr 11:38 hrs 16.1 km/hr 5.7 km/hr 44.4 km
02/08/2010 17.4C 9.6C 12.9C 1020.1 hPa 1017.0 hPa 24.2 mm 21.4 mm/hr 05:03 hrs 12.9 km/hr 4.2 km/hr 17.5 km
03/08/2010 15.1C 10.9C 13.2C 1017.1 hPa 1014.6 hPa 2.4 mm 3.0 mm/hr 10:58 hrs 6.4 km/hr 2.6 km/hr 15.8 km
04/08/2010 14.8C 11.2C 13.4C 1015.3 hPa 1001.5 hPa 35.4 mm 162.2 mm/hr 14:53 hrs 17.7 km/hr 6.3 km/hr 49.9 km
05/08/2010 15.8C 9.3C 11.8C 1018.2 hPa 1004.6 hPa 6.6 mm 31.2 mm/hr 09:02 hrs 11.3 km/hr 3.9 km/hr 19.1 km
06/08/2010 16.1C 9.2C 11.8C 1021.0 hPa 1017.3 hPa 0.0 mm 0.0 mm/hr 00:00 hrs 12.9 km/hr 4.2 km/hr 12.7 km
07/08/2010 13.4C 9.9C 11.5C 1017.7 hPa 1002.5 hPa 19.8 mm 37.0 mm/hr 22:36 hrs 19.3 km/hr 6.3 km/hr 37.8 km
08/08/2010 14.3C 8.8C 10.9C 1005.8 hPa 1001.5 hPa 2.4 mm 40.4 mm/hr 13:43 hrs 17.7 km/hr 4.2 km/hr 28.6 km
09/08/2010 14.2C 7.0C 10.0C 1020.1 hPa 1004.3 hPa 7.6 mm 53.4 mm/hr 03:37 hrs 27.4 km/hr 4.6 km/hr 43.5 km
10/08/2010 14.4C 3.6C 7.3C 1029.3 hPa 1020.1 hPa 0.0 mm 0.0 mm/hr 00:00 hrs 6.4 km/hr 2.4 km/hr 4.5 km
11/08/2010 16.1C 4.2C 8.3C 1030.5 hPa 1028.7 hPa 0.4 mm 0.0 mm/hr 00:00 hrs 6.4 km/hr 3.2 km/hr 4.2 km
12/08/2010 14.1C 4.9C 9.7C 1030.0 hPa 1019.8 hPa 0.0 mm 0.0 mm/hr 00:00 hrs 20.9 km/hr 6.7 km/hr 52.5 km
13/08/2010 15.6C 11.8C 13.9C 1020.1 hPa 1012.9 hPa 4.8 mm 6.2 mm/hr 19:48 hrs 32.2 km/hr 10.1 km/hr 117.4 km
14/08/2010 15.0C 12.1C 13.6C 1014.0 hPa 1010.2 hPa 20.0 mm 7.0 mm/hr 09:20 hrs 17.7 km/hr 6.5 km/hr 21.0 km
15/08/2010 14.0C 11.6C 12.5C 1011.9 hPa 1009.6 hPa 0.0 mm 0.0 mm/hr 00:00 hrs 17.7 km/hr 6.1 km/hr 39.8 km
16/08/2010 14.3C 10.8C 11.9C 1013.0 hPa 1008.6 hPa 0.4 mm 0.0 mm/hr 00:00 hrs 11.3 km/hr 4.7 km/hr 13.9 km
17/08/2010 16.5C 12.7C 14.2C 1010.4 hPa 1004.7 hPa 5.6 mm 59.0 mm/hr 14:59 hrs 30.6 km/hr 7.4 km/hr 76.2 km
18/08/2010 13.1C 8.2C 10.5C 1006.1 hPa 1002.2 hPa 9.0 mm 63.2 mm/hr 08:53 hrs 20.9 km/hr 4.9 km/hr 48.9 km
19/08/2010 15.2C 8.0C 11.0C 1013.9 hPa 1004.1 hPa 2.6 mm 63.6 mm/hr 03:18 hrs 19.3 km/hr 6.0 km/hr 54.0 km
20/08/2010 13.8C 7.1C 10.5C 1013.7 hPa 1004.0 hPa 16.6 mm 31.0 mm/hr 16:21 hrs 25.7 km/hr 6.7 km/hr 36.1 km
21/08/2010 14.7C 8.8C 12.4C 1007.7 hPa 1002.8 hPa 5.0 mm 14.2 mm/hr 06:07 hrs 27.4 km/hr 5.3 km/hr 43.4 km
22/08/2010 15.5C 8.7C 11.0C 1012.2 hPa 1007.7 hPa 3.2 mm 12.4 mm/hr 09:05 hrs 12.9 km/hr 5.0 km/hr 20.9 km
23/08/2010 15.3C 7.7C 10.2C 1013.8 hPa 1011.0 hPa 6.2 mm 67.0 mm/hr 07:36 hrs 14.5 km/hr 2.8 km/hr 8.5 km
24/08/2010 15.6C 6.6C 9.5C 1016.0 hPa 1012.9 hPa 3.0 mm 24.8 mm/hr 08:12 hrs 8.0 km/hr 2.9 km/hr 10.5 km
25/08/2010 13.4C 6.0C 10.2C 1015.7 hPa 1005.7 hPa 11.4 mm 7.2 mm/hr 15:18 hrs 25.7 km/hr 9.4 km/hr 88.0 km
26/08/2010 15.3C 10.6C 12.9C 1010.2 hPa 1005.4 hPa 1.2 mm 2.0 mm/hr 23:54 hrs 11.3 km/hr 2.6 km/hr 16.7 km
27/08/2010 14.7C 9.7C 11.9C 1011.9 hPa 1007.7 hPa 11.2 mm 16.6 mm/hr 02:20 hrs 4.8 km/hr 1.9 km/hr 2.4 km
28/08/2010 16.5C 9.4C 12.9C 1011.7 hPa 1009.6 hPa 3.6 mm 8.0 mm/hr 06:11 hrs 25.7 km/hr 7.4 km/hr 42.6 km
29/08/2010 14.7C 7.2C 11.1C 1010.3 hPa 1001.0 hPa 24.8 mm 108.6 mm/hr 10:39 hrs 17.7 km/hr 5.5 km/hr 36.1 km
30/08/2010 14.7C 7.1C 10.3C 1007.1 hPa 999.3 hPa 3.0 mm 19.0 mm/hr 04:20 hrs 12.9 km/hr 5.7 km/hr 33.2 km
Back to top 31/08/2010 15.9C 8.3C 10.9C 1011.6 hPa 1006.8 hPa 12.2 mm 45.8 mm/hr 09:53 hrs 12.9 km/hr 4.9 km/hr 24.4 km
2009 Temperature Pressure Rain Wind
Maximum Minimum Average Maximum Minimum Day Total Maximum Rain Rate High Gust Highest Av Run
C C C hPa hPa mm mm/hr time km/h km/h km
01/08/2009 14.4C 9.7C 12.1C 1017.0 hPa 1015.0 hPa 9.0 mm          
02/08/2009 13.6C 7.3C 10.5C 1018.0 hPa 1017.0 hPa 2.7 mm          
03/08/2009 14.2C 7.7C 11.0C 1023.0 hPa 1022.0 hPa 0.0 mm          
04/08/2009 13.8C 7.8C 10.8C 1022.0 hPa 1019.0 hPa 1.3 mm          
05/08/2009 13.2C 7.2C 10.2C 1027.0 hPa 1023.0 hPa 0.4 mm          
06/08/2009 15.3C 5.9C 10.6C 1029.0 hPa 1029.0 hPa 0.0 mm          
07/08/2009 15.0C 6.8C 10.9C 1029.0 hPa 1027.0 hPa 0.0 mm          
08/08/2009 14.0C 6.6C 10.3C 1029.0 hPa 1028.0 hPa 0.0 mm          
09/08/2009 12.6C 7.0C 9.8C 1029.0 hPa 1028.0 hPa 0.0 mm          
10/08/2009 13.9C 10.2C 12.1C 1031.0 hPa 1030.0 hPa 0.0 mm          
11/08/2009 14.2C 8.7C 11.5C 1032.0 hPa 1031.0 hPa 0.0 mm          
12/08/2009 15.0C 9.5C 12.3C 1030.0 hPa 1029.0 hPa 0.4 mm          
13/08/2009 14.9C 10.4C 12.7C 1028.0 hPa 1026.0 hPa 0.4 mm          
14/08/2009 13.6C 11.4C 12.5C 1021.0 hPa 1013.0 hPa 15.7 mm          
15/08/2009 15.7C 13.2C 14.5C 1009.0 hPa 1006.0 hPa 4.0 mm          
16/08/2009 14.4C 11.5C 13.0C 1005.0 hPa 1002.0 hPa 9.0 mm          
17/08/2009 14.8C 10.7C 12.8C 1008.0 hPa 1005.0 hPa 9.4 mm          
18/08/2009 14.4C 9.3C 11.9C 1010.0 hPa 1010.0 hPa 1.3 mm          
19/08/2009 15.9C 11.9C 13.9C 1012.0 hPa 1010.0 hPa 1.3 mm          
20/08/2009 13.9C 9.1C 11.5C 1015.0 hPa 1013.0 hPa 0.4 mm          
21/08/2009 17.0C 7.8C 12.4C 1018.0 hPa 1017.0 hPa 0.0 mm          
22/08/2009 16.3C 10.4C 13.4C 1020.0 hPa 1018.0 hPa 0.0 mm          
23/08/2009 14.6C 9.2C 11.9C 1016.0 hPa 1015.0 hPa 0.0 mm          
24/08/2009 13.6C 11.6C 12.6C 1019.0 hPa 1015.0 hPa 0.4 mm          
25/08/2009 15.1C 10.3C 12.7C 1017.0 hPa 1014.0 hPa 5.4 mm          
26/08/2009 15.8C 10.7C 13.3C 1010.0 hPa 1010.0 hPa 14.4 mm          
27/08/2009 15.8C 11.4C 13.6C 1016.0 hPa 1014.0 hPa 0.4 mm          
28/08/2009 17.6C 11.7C 14.7C 1021.0 hPa 1019.0 hPa 0.0 mm          
29/08/2009 16.5C 12.1C 14.3C 1020.0 hPa 1018.0 hPa 0.0 mm          
30/08/2009 18.8C 12.9C 15.9C 1013.0 hPa 1004.0 hPa 12.6 mm          
Back to top 31/08/2009 14.8C 11.0C 12.9C 1014.0 hPa 1004.0 hPa 5.8 mm          
2008 Temperature Pressure Rain Wind
Maximum Minimum Average Maximum Minimum Day Total Maximum Rain Rate High Gust Highest Av Run
C C C hPa hPa mm mm/hr time km/h km/h km
01/08/2008 14.3C 10.1C 12.2C 1002.0 hPa 1000.0 hPa 3.1 mm          
02/08/2008 12.5C 8.6C 10.6C 1004.0 hPa 994.5 hPa 8.1 mm          
03/08/2008 10.7C 10.6C 10.7C 1005.0 hPa 994.5 hPa 11.7 mm          
04/08/2008 14.0C 8.6C 11.3C 1014.0 hPa 1009.0 hPa 4.0 mm          
05/08/2008 13.1C 7.2C 10.2C 1020.0 hPa 1017.0 hPa 1.3 mm          
06/08/2008 14.3C 7.9C 11.1C 1023.0 hPa 1022.0 hPa 2.2 mm          
07/08/2008 12.8C 8.0C 10.4C 1024.0 hPa 1019.0 hPa 0.4 mm          
08/08/2008 15.0C 8.8C 11.9C 1012.0 hPa 1010.0 hPa 4.5 mm          
09/08/2008 11.0C 9.0C 10.0C 1009.0 hPa 1009.0 hPa 6.3 mm          
10/08/2008 11.1C 2.4C 6.8C 1016.0 hPa 1016.0 hPa 0.0 mm          
11/08/2008 12.8C 5.3C 9.1C 1017.0 hPa 1014.0 hPa 0.0 mm          
12/08/2008 13.8C 9.7C 11.8C 1009.0 hPa 1007.0 hPa 11.7 mm          
13/08/2008 12.3C 8.0C 10.2C 1006.0 hPa 1004.0 hPa 8.1 mm          
14/08/2008 12.1C 7.3C 9.7C 1003.0 hPa 1001.0 hPa 22.9 mm          
15/08/2008 13.0C 8.1C 10.6C 996.0 hPa 994.0 hPa 22.5 mm          
16/08/2008 12.6C 6.9C 9.8C 1001.0 hPa 996.0 hPa 24.3 mm          
17/08/2008 9.5C 7.3C 8.4C 1002.0 hPa 998.0 hPa 11.7 mm          
18/08/2008 12.0C 5.7C 8.9C 1006.0 hPa 999.0 hPa 4.5 mm          
19/08/2008 11.9C 6.1C 9.0C 1014.0 hPa 1010.0 hPa 2.2 mm          
20/08/2008 12.4C 6.2C 9.3C 1020.0 hPa 1018.0 hPa 2.7 mm          
21/08/2008 14.0C 7.3C 10.7C 1025.0 hPa 1023.0 hPa 5.8 mm          
22/08/2008 14.7C 8.5C 11.6C 1025.0 hPa 1023.0 hPa 2.2 mm          
23/08/2008 13.9C 10.6C 12.3C 1023.0 hPa 1019.0 hPa 3.6 mm          
24/08/2008 14.6C 10.2C 12.4C 1009.0 hPa 1003.0 hPa 42.7 mm          
25/08/2008 15.7C 9.5C 12.6C 1003.0 hPa 1003.0 hPa 0.0 mm          
26/08/2008 15.5C 10.2C 12.9C 1005.0 hPa 1003.0 hPa 0.9 mm          
27/08/2008 14.1C 10.5C 12.3C 1010.0 hPa 1008.0 hPa 1.3 mm          
28/08/2008 15.9C 10.0C 13.0C 1020.0 hPa 1015.0 hPa 0.9 mm          
29/08/2008 14.9C 8.7C 11.8C 1025.0 hPa 1024.0 hPa 0.0 mm          
30/08/2008 10.9C 8.0C 9.5C 1033.0 hPa 1030.0 hPa 1.3 mm          
Back to top 31/08/2008 14.4C 8.2C 11.3C 1037.0 hPa 1036.0 hPa 0.0 mm          
2007 Temperature Pressure Rain Wind
Maximum Minimum Average Maximum Minimum Day Total Maximum Rain Rate High Gust Highest Av Run
C C C hPa hPa mm mm/hr time km/h km/h km
01/08/2007 14.2C 9.5C 11.9C 1008.0 hPa 1006.0 hPa            
02/08/2007 14.4C 9.2C 11.8C 1010.0 hPa 1009.0 hPa            
03/08/2007 16.2C 11.1C 13.7C 1010.0 hPa 1008.0 hPa            
04/08/2007 15.0C 9.7C 12.4C 1005.0 hPa 1000.0 hPa            
05/08/2007 14.9C 9.0C 12.0C 1002.0 hPa 1002.0 hPa            
06/08/2007 14.9C 9.5C 12.2C 1003.0 hPa 1001.0 hPa            
07/08/2007 11.0C 8.2C 9.6C 1000.0 hPa 999.0 hPa            
08/08/2007 15.1C 6.4C 10.8C 1014.0 hPa 1003.0 hPa            
09/08/2007 16.8C 8.6C 12.7C 1018.0 hPa 1015.0 hPa            
10/08/2007 16.5C 12.5C 14.5C 1018.0 hPa 1017.0 hPa            
11/08/2007 17.4C 11.1C 14.3C 1016.0 hPa 1012.0 hPa            
12/08/2007 15.0C 9.4C 12.2C 1010.0 hPa 1007.0 hPa            
13/08/2007 15.4C 7.5C 11.5C 1019.0 hPa 1015.0 hPa            
14/08/2007 13.9C 6.2C 10.1C 1029.0 hPa 1023.0 hPa            
15/08/2007 13.2C 7.7C 10.5C 1030.0 hPa 1030.0 hPa            
16/08/2007 13.2C 7.7C 10.5C 1027.0 hPa 1015.0 hPa            
17/08/2007 15.8C 8.6C 12.2C 1015.0 hPa 1014.0 hPa            
18/08/2007 14.0C 11.0C 12.5C 1016.0 hPa 1012.0 hPa            
19/08/2007 16.6C 10.4C 13.5C 1021.0 hPa 1016.0 hPa            
20/08/2007 14.4C 8.1C 11.3C 1019.0 hPa 1014.0 hPa            
21/08/2007 15.1C 5.9C 10.5C 1019.0 hPa 1015.0 hPa            
22/08/2007 13.6C 8.2C 10.9C 1013.0 hPa 1013.0 hPa            
23/08/2007 14.7C 7.2C 11.0C 1021.0 hPa 1013.0 hPa            
24/08/2007 14.9C 6.4C 10.7C 1027.0 hPa 1023.0 hPa            
25/08/2007 14.7C 7.4C 11.1C 1026.0 hPa 1025.0 hPa            
26/08/2007 14.9C 7.4C 11.2C 1022.0 hPa 1018.0 hPa            
27/08/2007 15.2C 8.8C 12.0C 1012.0 hPa 1001.0 hPa            
28/08/2007 14.7C 11.7C 13.2C 1008.0 hPa 999.0 hPa            
29/08/2007 16.0C 9.4C 12.7C 1017.0 hPa 1013.0 hPa            
30/08/2007 16.9C 10.8C 13.9C 1021.0 hPa 1018.0 hPa            
Back to top 31/08/2007 15.6C 10.0C 12.8C 1026.0 hPa 1023.0 hPa